Time;durP1;ratioP1;P1;durP2;ratioP2;P2;SDS_P1;SDS_P2;PMS_P1;PMS_P2;Temp;Humidity;BMP_temperature;BMP_pressure;BME280_temperature;BME280_humidity;BME280_pressure;Samples;Min_cycle;Max_cycle;Signal;HPM_P1;HPM_P2
2023/03/25 00:01:13;;;;;;;31.27;29.57;;;10.00;99.90;;;;;;5153944;27;20890;-72
2023/03/25 00:03:42;;;;;;;31.10;29.57;;;10.00;99.90;;;;;;5153799;27;20539;-73
2023/03/25 00:06:11;;;;;;;32.20;30.60;;;10.00;99.90;;;;;;5153647;27;20475;-73
2023/03/25 00:08:38;;;;;;;31.10;29.60;;;10.00;99.90;;;;;;5153994;27;20868;-70
2023/03/25 00:11:07;;;;;;;31.37;29.87;;;10.00;99.90;;;;;;5154229;27;20436;-72
2023/03/25 00:13:34;;;;;;;32.53;30.93;;;9.90;99.90;;;;;;5155613;27;20524;-73
2023/03/25 00:16:02;;;;;;;32.63;31.13;;;9.70;99.90;;;;;;5153323;27;20447;-71
2023/03/25 00:18:32;;;;;;;32.27;30.73;;;9.60;99.90;;;;;;5153221;27;20447;-73
2023/03/25 00:21:02;;;;;;;32.27;30.77;;;9.60;99.90;;;;;;5154304;27;20555;-72
2023/03/25 00:23:30;;;;;;;32.17;30.77;;;9.50;99.90;;;;;;5154665;27;20888;-72
2023/03/25 00:25:59;;;;;;;32.03;30.67;;;9.40;99.90;;;;;;5154733;27;20472;-73
2023/03/25 00:28:27;;;;;;;32.23;30.83;;;9.40;99.90;;;;;;5154108;27;20455;-75
2023/03/25 00:30:54;;;;;;;30.93;29.47;;;9.30;99.90;;;;;;5153691;27;20958;-75
2023/03/25 00:33:21;;;;;;;31.50;30.20;;;9.30;99.90;;;;;;5153139;27;20475;-75
2023/03/25 00:35:53;;;;;;;31.63;30.20;;;9.20;99.90;;;;;;5153081;27;20526;-75
2023/03/25 00:38:23;;;;;;;30.00;28.70;;;9.30;99.90;;;;;;5152767;27;20444;-75
2023/03/25 00:40:51;;;;;;;31.03;29.53;;;9.20;99.90;;;;;;5152835;27;20768;-75
2023/03/25 00:43:18;;;;;;;30.53;29.10;;;9.10;99.90;;;;;;5152973;27;20450;-74
2023/03/25 00:45:45;;;;;;;28.73;27.53;;;9.10;99.90;;;;;;5152516;27;20447;-74
2023/03/25 00:48:11;;;;;;;28.70;27.50;;;9.10;99.90;;;;;;5152711;27;20496;-74
2023/03/25 00:50:38;;;;;;;28.80;27.60;;;9.10;99.90;;;;;;5152884;27;20440;-74
2023/03/25 00:53:07;;;;;;;27.13;26.10;;;9.10;99.90;;;;;;5152485;27;20447;-74
2023/03/25 00:55:35;;;;;;;26.43;25.43;;;9.10;99.90;;;;;;5152586;27;20543;-74
2023/03/25 00:58:02;;;;;;;26.57;25.57;;;9.10;99.90;;;;;;5152786;27;20447;-74
2023/03/25 01:00:29;;;;;;;23.87;22.97;;;9.10;99.90;;;;;;5152260;27;20500;-74
2023/03/25 01:02:55;;;;;;;23.13;22.07;;;9.10;99.90;;;;;;5152292;27;20957;-74
2023/03/25 01:05:22;;;;;;;22.00;21.20;;;9.10;99.90;;;;;;5152501;27;20804;-73
2023/03/25 01:07:50;;;;;;;20.50;19.70;;;9.00;99.90;;;;;;5152222;27;20440;-73
2023/03/25 01:10:17;;;;;;;20.07;19.27;;;9.10;99.90;;;;;;5152204;27;20443;-73
2023/03/25 01:12:45;;;;;;;18.17;17.50;;;9.00;99.90;;;;;;5152471;27;20461;-73
2023/03/25 01:15:12;;;;;;;16.77;16.07;;;9.00;99.90;;;;;;5151984;27;20574;-73
2023/03/25 01:17:39;;;;;;;15.33;14.77;;;9.10;99.90;;;;;;5152323;27;20439;-73
2023/03/25 01:20:07;;;;;;;14.27;13.77;;;9.10;99.90;;;;;;5152250;27;20446;-73
2023/03/25 01:22:34;;;;;;;13.70;13.20;;;9.10;99.90;;;;;;5151023;27;20471;-73
2023/03/25 01:25:01;;;;;;;12.97;12.47;;;9.20;99.90;;;;;;5152100;27;20491;-73
2023/03/25 01:27:29;;;;;;;13.17;12.57;;;9.20;99.90;;;;;;5152091;27;20503;-72
2023/03/25 01:29:57;;;;;;;12.53;12.10;;;9.30;99.90;;;;;;5151724;27;20454;-72
2023/03/25 01:32:24;;;;;;;13.37;12.67;;;9.20;99.90;;;;;;5151569;27;20505;-72
2023/03/25 01:34:50;;;;;;;12.60;12.10;;;9.20;99.90;;;;;;5151747;27;20508;-72
2023/03/25 01:37:18;;;;;;;13.17;12.30;;;9.20;99.90;;;;;;5151594;27;20451;-72
2023/03/25 01:39:44;;;;;;;13.43;12.73;;;9.20;99.90;;;;;;5151819;27;20526;-73
2023/03/25 01:42:12;;;;;;;13.27;12.70;;;9.20;99.90;;;;;;5151609;27;20482;-73
2023/03/25 01:45:13;;;;;;;12.83;12.43;;;9.20;99.90;;;;;;5151627;27;20451;-72
2023/03/25 01:47:40;;;;;;;13.13;12.53;;;9.20;99.90;;;;;;5152159;27;20439;-74
2023/03/25 01:50:13;;;;;;;13.47;12.87;;;9.20;99.90;;;;;;5152459;27;20451;-74
2023/03/25 01:52:41;;;;;;;12.97;12.40;;;9.30;99.90;;;;;;5151511;27;20472;-74
2023/03/25 01:55:09;;;;;;;13.80;12.90;;;9.30;99.90;;;;;;5151471;27;20447;-74
2023/03/25 01:57:38;;;;;;;13.13;12.60;;;9.30;99.90;;;;;;5151535;27;20446;-75
2023/03/25 02:00:08;;;;;;;12.73;12.13;;;9.30;99.90;;;;;;5152084;27;20500;-74
2023/03/25 02:02:39;;;;;;;12.27;11.67;;;9.30;99.90;;;;;;5151718;27;20483;-76
2023/03/25 02:05:09;;;;;;;12.30;11.70;;;9.30;99.90;;;;;;5151794;27;20504;-76
2023/03/25 02:11:17;;;;;;;12.30;11.70;;;9.30;99.90;;;;;;5152358;27;20432;-74
2023/03/25 02:13:43;;;;;;;12.00;11.40;;;9.20;99.90;;;;;;5151611;27;20447;-75
2023/03/25 02:16:26;;;;;;;11.70;11.30;;;9.30;99.90;;;;;;5151611;27;20448;-76
2023/03/25 02:19:08;;;;;;;12.27;11.67;;;9.30;99.90;;;;;;5151482;27;20956;-76
2023/03/25 02:22:24;;;;;;;12.33;11.83;;;9.30;99.90;;;;;;5151546;27;20483;-75
2023/03/25 02:25:34;;;;;;;12.27;11.60;;;9.20;99.90;;;;;;5132067;27;20464;-76
2023/03/25 02:28:09;;;;;;;12.30;11.77;;;9.20;99.90;;;;;;5151656;27;20967;-75
2023/03/25 02:31:01;;;;;;;12.83;12.13;;;9.30;99.90;;;;;;5151732;27;20941;-76
2023/03/25 02:33:42;;;;;;;12.00;11.40;;;9.30;99.90;;;;;;5151317;27;20878;-76
2023/03/25 02:36:43;;;;;;;11.50;11.00;;;9.30;99.90;;;;;;5151645;27;20499;-76
2023/03/25 02:39:19;;;;;;;11.60;11.20;;;9.40;99.90;;;;;;5148210;27;20474;-75
2023/03/25 02:41:53;;;;;;;12.53;12.03;;;9.40;99.90;;;;;;5151588;27;20925;-75
2023/03/25 02:44:29;;;;;;;12.10;11.60;;;9.30;99.90;;;;;;5151477;27;20507;-75
2023/03/25 02:47:00;;;;;;;14.80;14.10;;;9.30;99.90;;;;;;5151324;27;20994;-74
2023/03/25 02:49:31;;;;;;;16.23;15.33;;;9.30;99.90;;;;;;5151307;27;20451;-74
2023/03/25 02:52:04;;;;;;;18.20;17.50;;;9.20;99.90;;;;;;5151411;27;20451;-73
2023/03/25 02:54:35;;;;;;;21.40;20.50;;;9.10;99.90;;;;;;5151622;27;20454;-73
2023/03/25 02:57:04;;;;;;;22.23;20.93;;;9.10;99.90;;;;;;5151353;27;20447;-73
2023/03/25 02:59:32;;;;;;;21.53;20.67;;;9.10;99.90;;;;;;5151281;27;20558;-73
2023/03/25 03:02:02;;;;;;;21.97;21.03;;;9.00;99.90;;;;;;5150880;27;20706;-73
2023/03/25 03:04:29;;;;;;;22.93;21.57;;;9.00;99.90;;;;;;5151111;27;20443;-73
2023/03/25 03:06:58;;;;;;;22.30;21.20;;;9.00;99.90;;;;;;5151302;27;20942;-72
2023/03/25 03:09:40;;;;;;;22.70;21.60;;;8.90;99.90;;;;;;5151628;27;20447;-73
2023/03/25 03:12:16;;;;;;;22.77;21.57;;;8.80;99.90;;;;;;5151288;27;20467;-72
2023/03/25 03:15:01;;;;;;;22.50;21.50;;;8.70;99.90;;;;;;5149523;27;20435;-72
2023/03/25 03:17:38;;;;;;;21.63;20.43;;;8.50;99.90;;;;;;5151607;27;20446;-73
2023/03/25 03:20:16;;;;;;;22.20;21.20;;;8.40;99.90;;;;;;5151510;27;20808;-73
2023/03/25 03:22:51;;;;;;;21.43;20.53;;;8.50;99.90;;;;;;5149158;27;20852;-72
2023/03/25 03:25:27;;;;;;;21.27;20.37;;;8.40;99.90;;;;;;5150995;27;20591;-73
2023/03/25 03:27:57;;;;;;;21.73;20.60;;;8.40;99.90;;;;;;5151146;27;20443;-72
2023/03/25 03:30:31;;;;;;;21.10;20.10;;;8.40;99.90;;;;;;5151247;27;20482;-72
2023/03/25 03:33:08;;;;;;;19.60;18.90;;;8.30;99.90;;;;;;5150824;27;20471;-71
2023/03/25 03:35:40;;;;;;;20.37;19.37;;;8.30;99.90;;;;;;5150991;27;20898;-71
2023/03/25 03:38:10;;;;;;;19.80;18.80;;;8.40;99.90;;;;;;5151057;27;20443;-72
2023/03/25 03:40:40;;;;;;;16.40;15.80;;;8.50;99.90;;;;;;5150904;27;20442;-74
2023/03/25 03:43:10;;;;;;;15.60;14.90;;;8.50;99.90;;;;;;5150511;27;20479;-73
2023/03/25 03:45:41;;;;;;;14.20;13.70;;;8.50;99.90;;;;;;5150653;27;20707;-73
2023/03/25 03:48:11;;;;;;;12.90;12.30;;;8.50;99.90;;;;;;5154302;27;20530;-72
2023/03/25 03:50:45;;;;;;;11.47;11.07;;;8.50;99.90;;;;;;5154724;27;20450;-72
2023/03/25 03:53:16;;;;;;;11.17;10.87;;;8.50;99.90;;;;;;5154521;27;20448;-72
2023/03/25 03:55:48;;;;;;;11.70;11.30;;;8.50;99.90;;;;;;5154486;27;20454;-72
2023/03/25 03:58:22;;;;;;;11.20;10.90;;;8.60;99.90;;;;;;5154474;27;20446;-72
2023/03/25 04:00:56;;;;;;;11.07;10.77;;;8.60;99.90;;;;;;5154373;27;20447;-72
2023/03/25 04:03:27;;;;;;;10.37;10.07;;;8.60;99.90;;;;;;5154274;27;20834;-74
2023/03/25 04:05:58;;;;;;;10.60;10.27;;;8.50;99.90;;;;;;5154236;27;20808;-73
2023/03/25 04:08:30;;;;;;;10.43;10.13;;;8.50;99.90;;;;;;5154163;27;20475;-73
2023/03/25 04:11:02;;;;;;;11.00;10.70;;;8.50;99.90;;;;;;5154167;27;20486;-73
2023/03/25 04:13:34;;;;;;;10.90;10.60;;;8.50;99.90;;;;;;5154165;27;20528;-74
2023/03/25 04:16:01;;;;;;;10.93;10.60;;;8.50;99.90;;;;;;5154032;27;20435;-72
2023/03/25 04:18:28;;;;;;;11.20;10.90;;;8.50;99.90;;;;;;5154077;27;20490;-73
2023/03/25 04:20:55;;;;;;;10.70;10.40;;;8.40;99.90;;;;;;5154076;27;20495;-74
2023/03/25 04:23:22;;;;;;;11.37;10.77;;;8.40;99.90;;;;;;5153818;27;20483;-74
2023/03/25 04:25:51;;;;;;;11.37;10.97;;;8.40;99.90;;;;;;5153827;27;20447;-74
2023/03/25 04:28:20;;;;;;;11.60;11.13;;;8.40;99.90;;;;;;5153605;27;20483;-76
2023/03/25 04:30:49;;;;;;;12.00;11.60;;;8.30;99.90;;;;;;5153870;27;20486;-74
2023/03/25 04:33:16;;;;;;;11.97;11.57;;;8.30;99.90;;;;;;5153362;27;20566;-76
2023/03/25 04:35:43;;;;;;;11.40;11.10;;;8.20;99.90;;;;;;5153676;27;20447;-75
2023/03/25 04:38:10;;;;;;;11.80;11.33;;;8.20;99.90;;;;;;5153354;27;20444;-76
2023/03/25 04:40:39;;;;;;;10.67;10.37;;;8.10;99.90;;;;;;5153004;27;20451;-75
2023/03/25 04:43:06;;;;;;;12.43;11.93;;;8.10;99.90;;;;;;5153411;27;20487;-74
2023/03/25 04:45:35;;;;;;;11.93;11.53;;;8.00;99.90;;;;;;5153700;27;20455;-76
2023/03/25 04:48:04;;;;;;;12.73;11.70;;;7.90;99.90;;;;;;5153184;27;20559;-74
2023/03/25 04:50:32;;;;;;;11.90;11.50;;;7.90;99.90;;;;;;5153345;27;20743;-75
2023/03/25 04:53:01;;;;;;;12.10;11.70;;;7.80;99.90;;;;;;5152849;27;20817;-76
2023/03/25 04:55:28;;;;;;;12.27;11.87;;;7.70;99.90;;;;;;5152829;27;20458;-76
2023/03/25 04:57:55;;;;;;;12.60;12.20;;;7.70;99.90;;;;;;5152978;27;20447;-76
2023/03/25 05:00:24;;;;;;;12.57;12.07;;;7.70;99.90;;;;;;5152930;27;20819;-76
2023/03/25 05:02:54;;;;;;;12.23;11.73;;;7.70;99.90;;;;;;5152933;27;20836;-77
2023/03/25 05:05:23;;;;;;;12.23;11.73;;;7.70;99.90;;;;;;5152979;27;20443;-76
2023/03/25 05:07:52;;;;;;;12.60;12.20;;;7.60;99.90;;;;;;5152534;27;20440;-76
2023/03/25 05:10:20;;;;;;;12.27;11.87;;;7.60;99.90;;;;;;5152989;27;20444;-76
2023/03/25 05:12:47;;;;;;;11.80;11.40;;;7.60;99.90;;;;;;5153071;27;20447;-76
2023/03/25 05:15:15;;;;;;;12.70;12.10;;;7.70;99.90;;;;;;5152876;27;20436;-76
2023/03/25 05:17:43;;;;;;;11.60;11.20;;;7.60;99.90;;;;;;5152853;27;20447;-76
2023/03/25 05:20:13;;;;;;;12.13;11.67;;;7.60;99.90;;;;;;5152753;27;20467;-76
2023/03/25 05:22:40;;;;;;;12.70;12.30;;;7.70;99.90;;;;;;5152795;27;20489;-76
2023/03/25 05:25:08;;;;;;;12.30;11.80;;;7.80;99.90;;;;;;5152917;27;20447;-76
2023/03/25 05:27:36;;;;;;;12.57;11.77;;;7.90;99.90;;;;;;5152749;27;20447;-75
2023/03/25 05:30:03;;;;;;;12.33;11.83;;;8.10;99.90;;;;;;5152556;27;20448;-75
2023/03/25 05:32:32;;;;;;;12.67;12.17;;;8.20;99.90;;;;;;5151891;27;20482;-76
2023/03/25 05:34:59;;;;;;;13.07;12.10;;;8.20;99.90;;;;;;5152663;27;20483;-76
2023/03/25 05:37:27;;;;;;;12.73;12.23;;;8.20;99.90;;;;;;5152482;27;20823;-75
2023/03/25 05:39:54;;;;;;;13.13;12.63;;;8.20;99.90;;;;;;5152397;27;20451;-75
2023/03/25 05:42:21;;;;;;;12.67;12.17;;;8.20;99.90;;;;;;5152265;27;20482;-75
2023/03/25 05:44:50;;;;;;;12.70;12.20;;;8.20;99.90;;;;;;5152318;27;20454;-75
2023/03/25 05:47:19;;;;;;;12.30;11.80;;;8.10;99.90;;;;;;5152196;27;20869;-76
2023/03/25 05:49:45;;;;;;;12.20;11.80;;;8.20;99.90;;;;;;5152066;27;20508;-75
2023/03/25 05:52:12;;;;;;;13.10;12.50;;;8.20;99.90;;;;;;5152194;27;20439;-75
2023/03/25 05:54:40;;;;;;;12.00;11.50;;;8.20;99.90;;;;;;5152246;27;20451;-75
2023/03/25 05:57:07;;;;;;;12.93;12.33;;;8.30;99.90;;;;;;5152138;27;20459;-75
2023/03/25 05:59:37;;;;;;;12.10;11.50;;;8.40;99.90;;;;;;5151908;27;20482;-76
2023/03/25 06:02:06;;;;;;;12.00;11.13;;;8.40;99.90;;;;;;5151788;27;20466;-78
2023/03/25 06:04:36;;;;;;;12.17;11.77;;;8.40;99.90;;;;;;5152292;27;20451;-77
2023/03/25 06:07:07;;;;;;;12.80;12.00;;;8.40;99.90;;;;;;5151496;27;20451;-76
2023/03/25 06:09:34;;;;;;;11.93;11.50;;;8.40;99.90;;;;;;5151378;27;20458;-77
2023/03/25 06:12:03;;;;;;;12.07;11.37;;;8.50;99.90;;;;;;5151875;27;20444;-77
2023/03/25 06:14:30;;;;;;;12.30;11.67;;;8.60;99.90;;;;;;5151726;27;21018;-78
2023/03/25 06:16:56;;;;;;;12.10;11.40;;;8.70;99.90;;;;;;5151808;27;20452;-78
2023/03/25 06:19:25;;;;;;;12.20;11.60;;;8.70;99.90;;;;;;5151797;27;20456;-78
2023/03/25 06:21:52;;;;;;;12.20;11.50;;;8.80;99.90;;;;;;5151654;27;20518;-78
2023/03/25 06:24:19;;;;;;;12.53;12.03;;;8.90;99.90;;;;;;5151695;27;20495;-79
2023/03/25 06:26:45;;;;;;;11.70;11.30;;;9.00;99.90;;;;;;5151724;27;20832;-80
2023/03/25 06:29:13;;;;;;;14.57;13.80;;;9.30;99.90;;;;;;5152300;27;20451;-81
2023/03/25 06:31:40;;;;;;;13.17;12.57;;;9.40;99.90;;;;;;5153327;27;20547;-79
2023/03/25 06:34:07;;;;;;;12.53;11.63;;;9.40;99.90;;;;;;5153458;27;20447;-78
2023/03/25 06:36:33;;;;;;;12.37;11.83;;;9.40;99.90;;;;;;5152031;27;20443;-81
2023/03/25 06:39:00;;;;;;;12.60;12.10;;;9.50;99.90;;;;;;5162571;27;20444;-79
2023/03/25 06:41:27;;;;;;;13.03;12.53;;;9.50;99.90;;;;;;5163930;27;20500;-80
2023/03/25 06:43:53;;;;;;;12.27;11.70;;;9.40;99.90;;;;;;5163028;27;20482;-81
2023/03/25 06:46:21;;;;;;;10.23;9.83;;;9.40;99.90;;;;;;5152964;27;20466;-82
2023/03/25 06:48:48;;;;;;;11.20;10.63;;;9.60;99.90;;;;;;5152318;27;20454;-83
2023/03/25 06:51:15;;;;;;;11.60;11.10;;;10.10;99.90;;;;;;5151809;27;20440;-85
2023/03/25 06:53:41;;;;;;;11.40;10.90;;;10.30;99.90;;;;;;5151915;27;20443;-80
2023/03/25 06:56:09;;;;;;;10.37;9.97;;;10.40;99.90;;;;;;5151731;27;20448;-81
2023/03/25 06:58:35;;;;;;;11.33;10.63;;;10.50;99.90;;;;;;5151728;27;20447;-80
2023/03/25 07:01:05;;;;;;;10.90;10.40;;;10.40;99.90;;;;;;5151977;27;20452;-80
2023/03/25 07:03:35;;;;;;;10.20;9.70;;;10.50;99.90;;;;;;5154199;27;20486;-82
2023/03/25 07:06:01;;;;;;;11.93;11.07;;;11.20;99.90;;;;;;5151669;27;20493;-81
2023/03/25 07:08:28;;;;;;;10.60;10.20;;;11.70;99.90;;;;;;5151748;27;20455;-81
2023/03/25 07:11:00;;;;;;;11.47;10.87;;;11.30;99.90;;;;;;5151559;27;20450;-81
2023/03/25 07:13:27;;;;;;;11.27;10.77;;;11.60;99.90;;;;;;5150996;27;20440;-82
2023/03/25 07:15:55;;;;;;;11.60;11.10;;;11.50;99.90;;;;;;5151370;27;20927;-83
2023/03/25 07:18:21;;;;;;;11.40;10.70;;;11.30;99.90;;;;;;5150907;27;20435;-80
2023/03/25 07:20:49;;;;;;;11.00;10.40;;;11.30;99.90;;;;;;5151361;27;20450;-82
2023/03/25 07:23:16;;;;;;;11.50;10.90;;;11.20;99.90;;;;;;5155138;27;20495;-83
2023/03/25 07:25:43;;;;;;;11.20;10.67;;;11.10;99.90;;;;;;5155211;27;20454;-84
2023/03/25 07:28:09;;;;;;;11.30;10.90;;;11.10;99.90;;;;;;5155716;27;20440;-86
2023/03/25 07:30:36;;;;;;;11.03;10.43;;;11.10;99.90;;;;;;5155769;27;20440;-81
2023/03/25 07:33:03;;;;;;;11.80;11.30;;;11.10;99.90;;;;;;5155878;27;20471;-81
2023/03/25 07:35:30;;;;;;;10.37;9.87;;;11.10;99.90;;;;;;5158794;27;20449;-79
2023/03/25 07:37:58;;;;;;;10.80;10.30;;;11.20;99.90;;;;;;5154920;27;20450;-77
2023/03/25 07:40:24;;;;;;;10.63;10.13;;;11.40;99.90;;;;;;5155075;27;20447;-79
2023/03/25 07:42:51;;;;;;;11.13;10.47;;;11.20;99.90;;;;;;5154935;27;20559;-80
2023/03/25 07:45:18;;;;;;;10.33;9.93;;;11.40;99.90;;;;;;5155184;27;20454;-80
2023/03/25 07:47:48;;;;;;;10.57;10.07;;;11.70;99.90;;;;;;5155228;27;20443;-80
2023/03/25 07:50:16;;;;;;;11.27;10.70;;;12.20;99.90;;;;;;5151509;27;20455;-79
2023/03/25 07:52:43;;;;;;;11.53;10.90;;;12.90;99.90;;;;;;5153225;27;20455;-79
2023/03/25 07:55:11;;;;;;;10.80;10.40;;;13.50;99.90;;;;;;5154624;27;20816;-77
2023/03/25 07:57:38;;;;;;;10.47;10.07;;;14.00;99.90;;;;;;5154530;27;20935;-85
2023/03/25 08:00:07;;;;;;;10.33;10.00;;;14.00;99.90;;;;;;5154393;27;21012;-77
2023/03/25 12:48:29;;;;;;;10.20;9.80;;;17.40;82.00;;;;;;6059594;23;20530;31
2023/03/25 12:51:05;;;;;;;10.00;9.70;;;16.70;83.40;;;;;;4893149;29;20479;-81
2023/03/25 12:53:44;;;;;;;11.03;10.53;;;15.90;90.70;;;;;;4895490;29;20483;-76
2023/03/25 12:56:25;;;;;;;15.47;14.90;;;15.00;96.00;;;;;;4895792;29;20463;-73
2023/03/25 12:59:21;;;;;;;16.07;15.10;;;14.10;99.90;;;;;;4895852;29;20459;-74
2023/03/25 13:01:58;;;;;;;16.33;15.83;;;13.20;99.90;;;;;;4895932;29;20462;-75
2023/03/25 13:04:43;;;;;;;13.90;13.40;;;13.20;99.90;;;;;;4895100;29;20479;-74
2023/03/25 13:07:15;;;;;;;10.97;10.60;;;13.80;99.90;;;;;;4895745;29;20474;-75
2023/03/25 13:09:53;;;;;;;9.50;9.20;;;14.80;99.90;;;;;;4894402;29;20482;-75
2023/03/25 13:12:30;;;;;;;10.77;10.27;;;16.10;99.90;;;;;;4888892;29;20462;-77
2023/03/25 13:15:03;;;;;;;10.63;9.60;;;17.00;98.60;;;;;;4895829;29;20967;-78
2023/03/25 13:17:35;;;;;;;10.37;9.97;;;17.90;97.10;;;;;;4895890;29;20455;-79
2023/03/25 13:20:09;;;;;;;10.63;10.33;;;18.80;94.10;;;;;;4883747;29;20502;-78
2023/03/25 13:22:43;;;;;;;10.60;10.20;;;18.60;91.20;;;;;;4896348;29;20459;-77
2023/03/25 13:25:19;;;;;;;9.60;9.20;;;17.80;92.20;;;;;;4896023;29;20856;-76
2023/03/25 13:27:47;;;;;;;10.50;10.10;;;16.60;93.40;;;;;;4895903;29;20439;-79
2023/03/25 13:30:20;;;;;;;9.80;9.50;;;16.80;93.60;;;;;;4896005;29;20486;-80
2023/03/25 13:32:49;;;;;;;10.30;9.80;;;16.80;93.00;;;;;;4896019;29;21015;-77
2023/03/25 13:35:20;;;;;;;10.80;10.37;;;16.60;93.30;;;;;;4895634;29;20483;-79
2023/03/25 13:37:51;;;;;;;10.30;10.00;;;16.80;92.30;;;;;;4895909;29;20796;-79
2023/03/25 13:40:25;;;;;;;10.50;9.90;;;16.40;92.60;;;;;;4895851;29;20470;-79
2023/03/25 13:42:57;;;;;;;10.53;10.10;;;17.00;93.30;;;;;;4895960;29;20455;-78
2023/03/25 13:45:27;;;;;;;9.50;9.20;;;17.40;91.30;;;;;;4896041;29;20451;-80
2023/03/25 13:48:04;;;;;;;10.57;10.17;;;17.60;89.20;;;;;;4895813;29;20498;-80
2023/03/25 13:50:32;;;;;;;10.10;9.70;;;18.10;89.30;;;;;;4893736;29;20490;-80
2023/03/25 13:53:05;;;;;;;9.50;9.20;;;18.50;88.30;;;;;;4896155;29;20451;-83
2023/03/25 13:55:37;;;;;;;10.50;10.10;;;18.30;85.20;;;;;;4895832;29;20467;-83
2023/03/25 13:58:21;;;;;;;9.80;9.50;;;18.10;85.40;;;;;;4896376;29;20477;-84
2023/03/25 14:01:11;;;;;;;9.03;8.73;;;17.90;86.80;;;;;;4896839;29;20455;-83
2023/03/25 14:04:17;;;;;;;9.83;9.53;;;17.80;85.60;;;;;;4896096;29;20491;-82
2023/03/25 14:07:21;;;;;;;10.10;9.70;;;17.60;86.90;;;;;;4895514;29;20462;-82
2023/03/25 14:10:02;;;;;;;9.60;9.30;;;17.20;87.70;;;;;;4896178;29;20458;-83
2023/03/25 14:12:31;;;;;;;9.47;9.00;;;16.30;88.20;;;;;;4895411;29;20828;-79
2023/03/25 14:15:02;;;;;;;10.23;9.73;;;15.40;91.00;;;;;;4895298;29;20551;-81
2023/03/25 14:17:30;;;;;;;9.20;8.90;;;14.90;92.30;;;;;;4895276;29;20459;-79
2023/03/25 14:19:59;;;;;;;10.20;9.60;;;14.70;95.10;;;;;;4895235;29;20466;-80
2023/03/25 14:22:29;;;;;;;14.47;13.63;;;14.20;96.10;;;;;;4895246;29;20466;-72
2023/03/25 14:24:57;;;;;;;15.50;14.90;;;13.70;99.90;;;;;;4895185;29;20502;-72
2023/03/25 14:27:28;;;;;;;14.50;14.00;;;13.00;99.90;;;;;;4895325;29;20463;-73
2023/03/25 14:29:58;;;;;;;13.83;13.03;;;12.40;99.90;;;;;;4894928;29;20466;-75
2023/03/25 14:32:31;;;;;;;11.47;10.97;;;12.10;99.90;;;;;;4895425;29;20923;-76
2023/03/25 14:35:31;;;;;;;11.87;11.47;;;12.00;99.90;;;;;;4893417;29;20982;-76
2023/03/25 14:38:18;;;;;;;10.37;9.67;;;12.00;99.90;;;;;;4894996;29;20459;-78
2023/03/25 14:40:50;;;;;;;10.10;9.80;;;12.10;99.90;;;;;;4895047;29;20463;-80
2023/03/25 14:43:21;;;;;;;10.30;9.90;;;12.20;99.90;;;;;;4895245;29;20653;-78
2023/03/25 14:46:00;;;;;;;10.60;10.00;;;12.50;99.90;;;;;;4894834;29;20462;-81
2023/03/25 14:48:33;;;;;;;9.53;9.03;;;12.80;99.90;;;;;;4894644;29;20994;-79
2023/03/25 14:51:35;;;;;;;10.07;9.57;;;13.00;99.90;;;;;;4894742;29;20547;-78
2023/03/25 14:54:06;;;;;;;9.30;8.70;;;13.20;99.70;;;;;;4878989;29;20752;-78
2023/03/25 14:56:36;;;;;;;9.60;9.30;;;13.50;99.90;;;;;;4894788;29;20668;-79
2023/03/25 14:59:09;;;;;;;11.00;10.30;;;13.60;98.00;;;;;;4894807;29;20467;-78
2023/03/25 15:01:39;;;;;;;9.93;9.53;;;13.80;97.90;;;;;;4895026;29;20459;-79
2023/03/25 15:04:16;;;;;;;10.20;9.90;;;13.80;97.80;;;;;;4894572;29;20520;-79
2023/03/25 15:06:44;;;;;;;10.57;10.10;;;13.80;96.50;;;;;;4894619;29;20469;-79
2023/03/25 15:09:14;;;;;;;10.57;9.90;;;13.80;96.00;;;;;;4894762;29;20463;-79
2023/03/25 15:11:45;;;;;;;9.63;9.23;;;13.80;96.30;;;;;;4894815;29;20881;-79
2023/03/25 15:14:16;;;;;;;10.60;9.83;;;13.90;96.30;;;;;;4894800;29;20454;-78
2023/03/25 15:17:01;;;;;;;10.63;10.23;;;13.90;95.70;;;;;;4891469;29;21014;-79
2023/03/25 15:19:28;;;;;;;10.00;9.60;;;14.00;95.20;;;;;;4892789;29;20467;-78
2023/03/25 15:22:20;;;;;;;9.40;9.10;;;14.10;94.70;;;;;;4893696;29;20470;-78
2023/03/25 15:24:59;;;;;;;10.53;10.03;;;14.10;94.00;;;;;;4893916;29;21037;-78
2023/03/25 15:27:50;;;;;;;10.80;10.20;;;14.10;94.20;;;;;;4894241;29;20455;-79
2023/03/25 15:30:51;;;;;;;10.60;10.10;;;14.10;93.30;;;;;;4894395;29;20510;-79
2023/03/25 15:33:31;;;;;;;9.77;9.37;;;14.30;93.30;;;;;;4894297;29;20467;-80
2023/03/25 15:36:15;;;;;;;10.70;9.90;;;14.30;93.10;;;;;;4894172;29;20498;-80
2023/03/25 15:38:52;;;;;;;10.30;9.90;;;14.40;93.30;;;;;;4893966;29;20459;-81
2023/03/25 15:41:54;;;;;;;9.50;9.20;;;14.50;93.00;;;;;;4899107;29;20454;-81
2023/03/25 15:44:40;;;;;;;9.60;9.10;;;14.50;92.90;;;;;;4897496;29;20493;-81
2023/03/25 15:47:19;;;;;;;10.17;9.77;;;14.60;92.80;;;;;;4897852;29;20479;-81
2023/03/25 15:50:05;;;;;;;10.90;10.43;;;14.50;93.00;;;;;;4897638;29;20533;-79
2023/03/25 15:52:52;;;;;;;9.90;9.50;;;14.50;92.70;;;;;;4898365;29;20463;-87
2023/03/25 15:55:23;;;;;;;9.50;9.10;;;14.30;93.30;;;;;;4897981;29;20810;-84
2023/03/25 15:57:54;;;;;;;9.67;9.27;;;14.20;93.40;;;;;;4896215;29;20459;-84
2023/03/25 16:00:27;;;;;;;10.03;9.60;;;14.10;93.30;;;;;;4897989;29;20455;-85
2023/03/25 16:03:02;;;;;;;10.80;10.30;;;14.00;93.80;;;;;;4898145;29;20555;-85
2023/03/25 16:05:30;;;;;;;11.23;10.83;;;14.00;93.70;;;;;;4897725;29;20494;-84
2023/03/25 16:08:00;;;;;;;10.20;9.90;;;14.00;93.50;;;;;;4897784;29;20463;-83
2023/03/25 16:10:30;;;;;;;10.40;10.10;;;14.00;93.10;;;;;;4897403;29;20526;-85
2023/03/25 16:12:57;;;;;;;10.77;10.27;;;13.90;92.90;;;;;;4897889;29;20467;-83
2023/03/25 16:15:29;;;;;;;11.43;11.03;;;14.00;93.00;;;;;;4897917;29;20798;-84
2023/03/25 16:17:58;;;;;;;10.17;9.67;;;14.00;92.80;;;;;;4897826;29;20458;-82
2023/03/25 16:20:27;;;;;;;10.37;9.97;;;13.90;92.40;;;;;;4897555;29;20463;-84
2023/03/25 16:22:57;;;;;;;10.70;10.30;;;13.90;92.10;;;;;;4896406;29;20482;-84
2023/03/25 16:25:27;;;;;;;10.40;9.90;;;13.80;92.00;;;;;;4897521;29;20490;-84
2023/03/25 16:27:56;;;;;;;10.90;10.20;;;13.90;91.90;;;;;;4897680;29;20459;-84
2023/03/25 16:30:27;;;;;;;9.70;9.30;;;13.80;92.20;;;;;;4898702;29;20459;-86
2023/03/25 16:33:05;;;;;;;10.03;9.53;;;13.80;92.40;;;;;;4897743;29;20467;-82
2023/03/25 16:35:31;;;;;;;10.97;10.47;;;13.70;92.50;;;;;;4897614;29;20872;-81
2023/03/25 16:37:59;;;;;;;10.10;9.70;;;13.50;92.50;;;;;;4893484;29;20978;-81
2023/03/25 16:40:28;;;;;;;9.67;9.17;;;13.40;92.30;;;;;;4896509;29;21083;-83
2023/03/25 16:43:02;;;;;;;10.83;10.27;;;13.30;92.50;;;;;;4896927;29;20947;-80
2023/03/25 16:45:30;;;;;;;10.33;9.93;;;13.20;92.20;;;;;;4897749;29;20499;-84
2023/03/25 16:47:57;;;;;;;10.80;10.20;;;13.20;92.40;;;;;;4898541;29;20483;-86
2023/03/25 16:50:25;;;;;;;10.33;9.83;;;13.10;93.00;;;;;;4898049;29;20487;-85
2023/03/25 16:52:52;;;;;;;11.90;11.20;;;13.10;93.30;;;;;;4897627;29;20466;-85
2023/03/25 16:55:31;;;;;;;10.40;10.00;;;13.10;93.40;;;;;;4899916;29;20455;-87
2023/03/25 16:58:11;;;;;;;10.23;9.70;;;13.10;93.50;;;;;;4904779;29;20459;-87
2023/03/25 17:00:42;;;;;;;9.63;9.03;;;13.00;93.70;;;;;;4903836;29;20459;-89
2023/03/25 17:03:16;;;;;;;10.33;9.87;;;13.00;93.70;;;;;;4899693;29;20463;-86
2023/03/25 17:05:55;;;;;;;9.93;9.53;;;13.00;93.80;;;;;;4901698;29;20486;-87
2023/03/25 17:08:23;;;;;;;10.10;9.60;;;12.90;93.90;;;;;;4901430;29;20826;-87
2023/03/25 17:10:52;;;;;;;11.17;10.50;;;12.90;94.40;;;;;;4899756;29;20462;-87
2023/03/25 17:13:25;;;;;;;9.57;9.00;;;12.90;94.40;;;;;;4898565;29;20829;-86
2023/03/25 17:15:54;;;;;;;9.60;9.20;;;12.80;94.70;;;;;;4898706;29;20450;-85
2023/03/25 17:18:26;;;;;;;9.90;9.50;;;12.80;94.80;;;;;;4897863;29;20459;-84
2023/03/25 17:20:56;;;;;;;9.93;9.40;;;12.80;94.90;;;;;;4898297;29;20468;-87
2023/03/25 17:23:34;;;;;;;9.97;9.47;;;12.80;95.00;;;;;;4898511;29;20467;-86
2023/03/25 17:26:02;;;;;;;9.73;9.20;;;12.70;95.00;;;;;;4898125;29;20508;-85
2023/03/25 17:28:36;;;;;;;9.43;9.03;;;12.70;95.50;;;;;;4897562;29;20470;-85
2023/03/25 17:31:26;;;;;;;10.60;9.80;;;12.70;95.40;;;;;;4896301;29;20531;-87
2023/03/25 17:33:58;;;;;;;9.10;8.53;;;12.60;95.70;;;;;;4898858;29;20558;-86
2023/03/25 17:36:26;;;;;;;9.97;9.47;;;12.60;95.50;;;;;;4901699;29;20891;-87
2023/03/25 17:38:54;;;;;;;10.30;9.40;;;12.50;95.90;;;;;;4904802;29;20872;-88
2023/03/25 17:41:21;;;;;;;9.03;8.63;;;12.40;96.40;;;;;;4907232;29;20971;-87
2023/03/25 17:43:50;;;;;;;8.80;8.50;;;12.30;96.70;;;;;;4901869;29;20464;-86
2023/03/25 17:46:22;;;;;;;9.70;9.20;;;12.20;96.90;;;;;;4896273;29;20582;-86
2023/03/25 17:48:49;;;;;;;9.03;8.53;;;12.30;96.90;;;;;;4897892;29;20483;-86